sensor_id;sensor_type;location;lat;lon;timestamp;P1;durP1;ratioP1;P2;durP2;ratioP2
20725;SDS011;10524;48.132;8.518;2023-08-21T00:00:54;13.38;;;11.98;;
20725;SDS011;10524;48.132;8.518;2023-08-21T00:03:20;12.18;;;10.88;;
20725;SDS011;10524;48.132;8.518;2023-08-21T00:05:47;11.95;;;10.85;;
20725;SDS011;10524;48.132;8.518;2023-08-21T00:08:12;16.38;;;11.95;;
20725;SDS011;10524;48.132;8.518;2023-08-21T00:10:38;12.40;;;11.18;;
20725;SDS011;10524;48.132;8.518;2023-08-21T00:13:04;12.82;;;11.60;;
20725;SDS011;10524;48.132;8.518;2023-08-21T00:15:30;12.65;;;11.30;;
20725;SDS011;10524;48.132;8.518;2023-08-21T00:17:56;12.48;;;11.20;;
20725;SDS011;10524;48.132;8.518;2023-08-21T00:20:22;13.48;;;11.52;;
20725;SDS011;10524;48.132;8.518;2023-08-21T00:22:48;13.02;;;11.25;;
20725;SDS011;10524;48.132;8.518;2023-08-21T00:25:13;16.52;;;11.30;;
20725;SDS011;10524;48.132;8.518;2023-08-21T00:27:39;12.55;;;11.35;;
20725;SDS011;10524;48.132;8.518;2023-08-21T00:30:05;13.32;;;10.82;;
20725;SDS011;10524;48.132;8.518;2023-08-21T00:32:31;12.93;;;11.63;;
20725;SDS011;10524;48.132;8.518;2023-08-21T00:34:57;13.25;;;11.85;;
20725;SDS011;10524;48.132;8.518;2023-08-21T00:37:22;13.48;;;12.07;;
20725;SDS011;10524;48.132;8.518;2023-08-21T00:39:48;13.48;;;12.10;;
20725;SDS011;10524;48.132;8.518;2023-08-21T00:42:14;14.02;;;12.50;;
20725;SDS011;10524;48.132;8.518;2023-08-21T00:44:39;14.07;;;12.18;;
20725;SDS011;10524;48.132;8.518;2023-08-21T00:47:05;15.45;;;11.70;;
20725;SDS011;10524;48.132;8.518;2023-08-21T00:49:31;14.65;;;12.38;;
20725;SDS011;10524;48.132;8.518;2023-08-21T00:51:57;12.75;;;11.48;;
20725;SDS011;10524;48.132;8.518;2023-08-21T00:54:24;12.25;;;11.05;;
20725;SDS011;10524;48.132;8.518;2023-08-21T00:56:50;13.07;;;11.75;;
20725;SDS011;10524;48.132;8.518;2023-08-21T00:59:17;14.50;;;12.30;;
20725;SDS011;10524;48.132;8.518;2023-08-21T01:01:44;15.68;;;12.60;;
20725;SDS011;10524;48.132;8.518;2023-08-21T01:04:10;13.23;;;11.15;;
20725;SDS011;10524;48.132;8.518;2023-08-21T01:06:36;13.35;;;11.90;;
20725;SDS011;10524;48.132;8.518;2023-08-21T01:09:04;12.65;;;11.30;;
20725;SDS011;10524;48.132;8.518;2023-08-21T01:11:40;13.95;;;12.55;;
20725;SDS011;10524;48.132;8.518;2023-08-21T01:14:19;15.32;;;12.35;;
20725;SDS011;10524;48.132;8.518;2023-08-21T01:16:56;13.10;;;11.32;;
20725;SDS011;10524;48.132;8.518;2023-08-21T01:19:32;12.40;;;11.27;;
20725;SDS011;10524;48.132;8.518;2023-08-21T01:22:02;12.73;;;11.32;;
20725;SDS011;10524;48.132;8.518;2023-08-21T01:24:28;14.57;;;11.95;;
20725;SDS011;10524;48.132;8.518;2023-08-21T01:26:54;13.70;;;11.95;;
20725;SDS011;10524;48.132;8.518;2023-08-21T01:29:20;15.02;;;12.00;;
20725;SDS011;10524;48.132;8.518;2023-08-21T01:31:47;13.23;;;12.02;;
20725;SDS011;10524;48.132;8.518;2023-08-21T01:34:33;13.25;;;11.93;;
20725;SDS011;10524;48.132;8.518;2023-08-21T01:37:00;13.55;;;12.18;;
20725;SDS011;10524;48.132;8.518;2023-08-21T01:39:27;13.15;;;11.85;;
20725;SDS011;10524;48.132;8.518;2023-08-21T01:41:53;13.75;;;11.77;;
20725;SDS011;10524;48.132;8.518;2023-08-21T01:44:21;14.45;;;11.68;;
20725;SDS011;10524;48.132;8.518;2023-08-21T01:46:46;13.23;;;11.38;;
20725;SDS011;10524;48.132;8.518;2023-08-21T01:49:12;13.18;;;11.73;;
20725;SDS011;10524;48.132;8.518;2023-08-21T01:51:38;12.35;;;11.25;;
20725;SDS011;10524;48.132;8.518;2023-08-21T01:54:03;11.27;;;10.32;;
20725;SDS011;10524;48.132;8.518;2023-08-21T01:56:29;13.15;;;11.90;;
20725;SDS011;10524;48.132;8.518;2023-08-21T01:58:55;15.20;;;12.40;;
20725;SDS011;10524;48.132;8.518;2023-08-21T02:01:20;13.23;;;11.95;;
20725;SDS011;10524;48.132;8.518;2023-08-21T02:03:46;14.38;;;12.13;;
20725;SDS011;10524;48.132;8.518;2023-08-21T02:06:12;12.38;;;11.13;;
20725;SDS011;10524;48.132;8.518;2023-08-21T02:08:37;13.48;;;11.80;;
20725;SDS011;10524;48.132;8.518;2023-08-21T02:11:03;13.20;;;11.90;;
20725;SDS011;10524;48.132;8.518;2023-08-21T02:13:29;12.93;;;11.43;;
20725;SDS011;10524;48.132;8.518;2023-08-21T02:15:54;12.88;;;11.57;;
20725;SDS011;10524;48.132;8.518;2023-08-21T02:18:20;13.05;;;11.65;;
20725;SDS011;10524;48.132;8.518;2023-08-21T02:20:46;12.52;;;11.30;;
20725;SDS011;10524;48.132;8.518;2023-08-21T02:23:13;15.77;;;11.80;;
20725;SDS011;10524;48.132;8.518;2023-08-21T02:25:38;14.25;;;12.75;;
20725;SDS011;10524;48.132;8.518;2023-08-21T02:28:04;13.98;;;12.52;;
20725;SDS011;10524;48.132;8.518;2023-08-21T02:30:31;13.48;;;12.00;;
20725;SDS011;10524;48.132;8.518;2023-08-21T02:32:57;13.00;;;11.80;;
20725;SDS011;10524;48.132;8.518;2023-08-21T02:35:23;13.25;;;11.73;;
20725;SDS011;10524;48.132;8.518;2023-08-21T02:37:48;12.18;;;11.07;;
20725;SDS011;10524;48.132;8.518;2023-08-21T02:40:14;13.05;;;11.02;;
20725;SDS011;10524;48.132;8.518;2023-08-21T02:42:40;12.70;;;11.50;;
20725;SDS011;10524;48.132;8.518;2023-08-21T02:45:06;13.57;;;12.32;;
20725;SDS011;10524;48.132;8.518;2023-08-21T02:47:35;14.10;;;12.43;;
20725;SDS011;10524;48.132;8.518;2023-08-21T02:50:05;13.32;;;11.88;;
20725;SDS011;10524;48.132;8.518;2023-08-21T02:52:34;13.10;;;11.90;;
20725;SDS011;10524;48.132;8.518;2023-08-21T02:55:00;13.07;;;11.65;;
20725;SDS011;10524;48.132;8.518;2023-08-21T02:57:27;12.90;;;11.68;;
20725;SDS011;10524;48.132;8.518;2023-08-21T02:59:53;13.93;;;12.50;;
20725;SDS011;10524;48.132;8.518;2023-08-21T03:02:19;13.50;;;11.93;;
20725;SDS011;10524;48.132;8.518;2023-08-21T03:04:46;14.75;;;13.18;;
20725;SDS011;10524;48.132;8.518;2023-08-21T03:07:11;13.63;;;12.23;;
20725;SDS011;10524;48.132;8.518;2023-08-21T03:09:37;13.00;;;11.80;;
20725;SDS011;10524;48.132;8.518;2023-08-21T03:12:04;12.90;;;11.65;;
20725;SDS011;10524;48.132;8.518;2023-08-21T03:14:29;14.27;;;12.88;;
20725;SDS011;10524;48.132;8.518;2023-08-21T03:16:55;15.60;;;12.52;;
20725;SDS011;10524;48.132;8.518;2023-08-21T03:19:21;14.63;;;13.10;;
20725;SDS011;10524;48.132;8.518;2023-08-21T03:21:46;13.60;;;12.20;;
20725;SDS011;10524;48.132;8.518;2023-08-21T03:24:12;14.60;;;12.68;;
20725;SDS011;10524;48.132;8.518;2023-08-21T03:26:38;13.52;;;12.23;;
20725;SDS011;10524;48.132;8.518;2023-08-21T03:29:04;14.32;;;12.38;;
20725;SDS011;10524;48.132;8.518;2023-08-21T03:31:29;15.15;;;13.55;;
20725;SDS011;10524;48.132;8.518;2023-08-21T03:33:55;13.98;;;12.57;;
20725;SDS011;10524;48.132;8.518;2023-08-21T03:36:21;12.85;;;11.57;;
20725;SDS011;10524;48.132;8.518;2023-08-21T03:38:56;14.15;;;12.65;;
20725;SDS011;10524;48.132;8.518;2023-08-21T03:41:26;12.88;;;11.57;;
20725;SDS011;10524;48.132;8.518;2023-08-21T03:43:52;12.93;;;11.68;;
20725;SDS011;10524;48.132;8.518;2023-08-21T03:46:18;13.60;;;12.20;;
20725;SDS011;10524;48.132;8.518;2023-08-21T03:48:44;14.20;;;12.88;;
20725;SDS011;10524;48.132;8.518;2023-08-21T03:51:10;13.88;;;12.48;;
20725;SDS011;10524;48.132;8.518;2023-08-21T03:53:35;13.82;;;12.63;;
20725;SDS011;10524;48.132;8.518;2023-08-21T03:56:01;14.25;;;12.25;;
20725;SDS011;10524;48.132;8.518;2023-08-21T03:58:27;14.43;;;13.05;;
20725;SDS011;10524;48.132;8.518;2023-08-21T04:00:53;13.50;;;12.20;;
20725;SDS011;10524;48.132;8.518;2023-08-21T04:03:19;14.25;;;12.85;;
20725;SDS011;10524;48.132;8.518;2023-08-21T04:05:46;14.32;;;12.93;;
20725;SDS011;10524;48.132;8.518;2023-08-21T04:08:11;13.65;;;12.30;;
20725;SDS011;10524;48.132;8.518;2023-08-21T04:10:37;14.65;;;13.25;;
20725;SDS011;10524;48.132;8.518;2023-08-21T04:13:04;13.55;;;12.30;;
20725;SDS011;10524;48.132;8.518;2023-08-21T04:15:30;14.80;;;13.30;;
20725;SDS011;10524;48.132;8.518;2023-08-21T04:17:56;13.95;;;12.60;;
20725;SDS011;10524;48.132;8.518;2023-08-21T04:20:24;14.63;;;12.95;;
20725;SDS011;10524;48.132;8.518;2023-08-21T04:22:50;14.20;;;12.73;;
20725;SDS011;10524;48.132;8.518;2023-08-21T04:25:16;14.98;;;13.48;;
20725;SDS011;10524;48.132;8.518;2023-08-21T04:27:42;15.70;;;13.90;;
20725;SDS011;10524;48.132;8.518;2023-08-21T04:30:08;14.93;;;13.38;;
20725;SDS011;10524;48.132;8.518;2023-08-21T04:32:34;15.48;;;13.55;;
20725;SDS011;10524;48.132;8.518;2023-08-21T04:35:00;15.00;;;13.10;;
20725;SDS011;10524;48.132;8.518;2023-08-21T04:37:26;14.38;;;12.95;;
20725;SDS011;10524;48.132;8.518;2023-08-21T04:39:52;14.02;;;12.48;;
20725;SDS011;10524;48.132;8.518;2023-08-21T04:42:18;13.15;;;11.85;;
20725;SDS011;10524;48.132;8.518;2023-08-21T04:44:45;15.50;;;12.75;;
20725;SDS011;10524;48.132;8.518;2023-08-21T04:49:52;13.88;;;11.30;;
20725;SDS011;10524;48.132;8.518;2023-08-21T04:52:19;11.98;;;10.88;;
20725;SDS011;10524;48.132;8.518;2023-08-21T04:54:46;12.15;;;10.70;;
20725;SDS011;10524;48.132;8.518;2023-08-21T04:57:12;11.25;;;10.15;;
20725;SDS011;10524;48.132;8.518;2023-08-21T04:59:38;9.98;;;9.07;;
20725;SDS011;10524;48.132;8.518;2023-08-21T05:02:04;9.55;;;8.65;;
20725;SDS011;10524;48.132;8.518;2023-08-21T05:04:30;8.88;;;8.07;;
20725;SDS011;10524;48.132;8.518;2023-08-21T05:06:55;8.43;;;7.30;;
20725;SDS011;10524;48.132;8.518;2023-08-21T05:09:21;8.15;;;6.88;;
20725;SDS011;10524;48.132;8.518;2023-08-21T05:11:47;7.95;;;6.93;;
20725;SDS011;10524;48.132;8.518;2023-08-21T05:14:12;7.30;;;6.60;;
20725;SDS011;10524;48.132;8.518;2023-08-21T05:16:38;6.85;;;6.15;;
20725;SDS011;10524;48.132;8.518;2023-08-21T05:19:04;6.95;;;5.80;;
20725;SDS011;10524;48.132;8.518;2023-08-21T05:21:29;7.63;;;6.78;;
20725;SDS011;10524;48.132;8.518;2023-08-21T05:23:55;6.07;;;5.47;;
20725;SDS011;10524;48.132;8.518;2023-08-21T05:26:21;5.60;;;5.10;;
20725;SDS011;10524;48.132;8.518;2023-08-21T05:28:46;5.90;;;5.30;;
20725;SDS011;10524;48.132;8.518;2023-08-21T05:31:12;5.80;;;5.20;;
20725;SDS011;10524;48.132;8.518;2023-08-21T05:33:37;6.43;;;5.38;;
20725;SDS011;10524;48.132;8.518;2023-08-21T05:36:04;7.35;;;5.47;;
20725;SDS011;10524;48.132;8.518;2023-08-21T05:38:30;5.03;;;4.53;;
20725;SDS011;10524;48.132;8.518;2023-08-21T05:40:56;5.63;;;5.03;;
20725;SDS011;10524;48.132;8.518;2023-08-21T05:43:23;5.22;;;4.35;;
20725;SDS011;10524;48.132;8.518;2023-08-21T05:45:52;8.18;;;5.00;;
20725;SDS011;10524;48.132;8.518;2023-08-21T05:48:17;5.15;;;4.30;;
20725;SDS011;10524;48.132;8.518;2023-08-21T05:50:43;6.18;;;4.68;;
20725;SDS011;10524;48.132;8.518;2023-08-21T05:53:09;5.13;;;4.63;;
20725;SDS011;10524;48.132;8.518;2023-08-21T05:55:36;5.95;;;4.25;;
20725;SDS011;10524;48.132;8.518;2023-08-21T05:58:02;5.22;;;3.90;;
20725;SDS011;10524;48.132;8.518;2023-08-21T06:00:28;4.10;;;3.80;;
20725;SDS011;10524;48.132;8.518;2023-08-21T06:02:54;4.88;;;4.32;;
20725;SDS011;10524;48.132;8.518;2023-08-21T06:05:20;5.80;;;4.60;;
20725;SDS011;10524;48.132;8.518;2023-08-21T06:07:46;4.38;;;3.67;;
20725;SDS011;10524;48.132;8.518;2023-08-21T06:10:11;4.43;;;3.90;;
20725;SDS011;10524;48.132;8.518;2023-08-21T06:12:38;5.70;;;4.32;;
20725;SDS011;10524;48.132;8.518;2023-08-21T06:15:05;8.15;;;4.53;;
20725;SDS011;10524;48.132;8.518;2023-08-21T06:17:34;6.57;;;5.10;;
20725;SDS011;10524;48.132;8.518;2023-08-21T06:20:00;6.88;;;5.30;;
20725;SDS011;10524;48.132;8.518;2023-08-21T06:22:28;6.25;;;4.90;;
20725;SDS011;10524;48.132;8.518;2023-08-21T06:24:53;9.30;;;4.97;;
20725;SDS011;10524;48.132;8.518;2023-08-21T06:27:19;5.95;;;5.13;;
20725;SDS011;10524;48.132;8.518;2023-08-21T06:29:45;7.63;;;5.15;;
20725;SDS011;10524;48.132;8.518;2023-08-21T06:32:10;5.82;;;5.18;;
20725;SDS011;10524;48.132;8.518;2023-08-21T06:34:36;6.97;;;5.13;;
20725;SDS011;10524;48.132;8.518;2023-08-21T06:37:02;6.50;;;5.22;;
20725;SDS011;10524;48.132;8.518;2023-08-21T06:39:28;5.38;;;4.88;;
20725;SDS011;10524;48.132;8.518;2023-08-21T06:41:54;6.43;;;5.32;;
20725;SDS011;10524;48.132;8.518;2023-08-21T06:44:19;8.10;;;5.15;;
20725;SDS011;10524;48.132;8.518;2023-08-21T06:46:45;6.22;;;4.90;;
20725;SDS011;10524;48.132;8.518;2023-08-21T06:49:11;8.32;;;5.00;;
20725;SDS011;10524;48.132;8.518;2023-08-21T06:51:36;5.43;;;4.72;;
20725;SDS011;10524;48.132;8.518;2023-08-21T06:54:02;4.80;;;3.88;;
20725;SDS011;10524;48.132;8.518;2023-08-21T06:56:28;5.53;;;4.43;;
20725;SDS011;10524;48.132;8.518;2023-08-21T06:58:53;5.93;;;4.07;;
20725;SDS011;10524;48.132;8.518;2023-08-21T07:01:20;6.53;;;3.97;;
20725;SDS011;10524;48.132;8.518;2023-08-21T07:03:46;7.32;;;4.30;;
20725;SDS011;10524;48.132;8.518;2023-08-21T07:06:12;7.28;;;4.38;;
20725;SDS011;10524;48.132;8.518;2023-08-21T07:08:38;5.05;;;3.80;;
20725;SDS011;10524;48.132;8.518;2023-08-21T07:11:05;6.20;;;4.00;;
20725;SDS011;10524;48.132;8.518;2023-08-21T07:13:33;6.90;;;4.38;;
20725;SDS011;10524;48.132;8.518;2023-08-21T07:15:59;5.18;;;3.88;;
20725;SDS011;10524;48.132;8.518;2023-08-21T07:18:27;4.68;;;3.80;;
20725;SDS011;10524;48.132;8.518;2023-08-21T07:20:53;5.35;;;4.40;;
20725;SDS011;10524;48.132;8.518;2023-08-21T07:23:19;5.03;;;4.03;;
20725;SDS011;10524;48.132;8.518;2023-08-21T07:25:45;5.55;;;4.30;;
20725;SDS011;10524;48.132;8.518;2023-08-21T07:28:11;4.68;;;3.40;;
20725;SDS011;10524;48.132;8.518;2023-08-21T07:30:37;6.65;;;4.07;;
20725;SDS011;10524;48.132;8.518;2023-08-21T07:33:03;4.68;;;3.60;;
20725;SDS011;10524;48.132;8.518;2023-08-21T07:35:30;4.50;;;3.70;;
20725;SDS011;10524;48.132;8.518;2023-08-21T07:37:56;5.25;;;4.32;;
20725;SDS011;10524;48.132;8.518;2023-08-21T07:40:21;6.00;;;3.70;;
20725;SDS011;10524;48.132;8.518;2023-08-21T07:42:47;5.47;;;4.05;;
20725;SDS011;10524;48.132;8.518;2023-08-21T07:45:13;5.13;;;3.63;;
20725;SDS011;10524;48.132;8.518;2023-08-21T07:47:38;5.43;;;4.03;;
20725;SDS011;10524;48.132;8.518;2023-08-21T07:50:07;6.22;;;4.07;;
20725;SDS011;10524;48.132;8.518;2023-08-21T07:52:34;4.57;;;3.55;;
20725;SDS011;10524;48.132;8.518;2023-08-21T07:55:00;4.40;;;3.78;;
20725;SDS011;10524;48.132;8.518;2023-08-21T07:57:27;6.60;;;3.80;;
20725;SDS011;10524;48.132;8.518;2023-08-21T07:59:53;7.47;;;4.55;;
20725;SDS011;10524;48.132;8.518;2023-08-21T08:02:19;4.03;;;3.53;;
20725;SDS011;10524;48.132;8.518;2023-08-21T08:04:45;4.60;;;4.00;;
20725;SDS011;10524;48.132;8.518;2023-08-21T08:07:11;6.95;;;4.10;;
20725;SDS011;10524;48.132;8.518;2023-08-21T08:09:37;7.65;;;4.00;;
20725;SDS011;10524;48.132;8.518;2023-08-21T08:12:02;7.18;;;4.20;;
20725;SDS011;10524;48.132;8.518;2023-08-21T08:14:29;7.03;;;4.43;;
20725;SDS011;10524;48.132;8.518;2023-08-21T08:16:54;6.30;;;4.30;;
20725;SDS011;10524;48.132;8.518;2023-08-21T08:19:20;5.00;;;4.07;;
20725;SDS011;10524;48.132;8.518;2023-08-21T08:21:45;8.77;;;4.32;;
20725;SDS011;10524;48.132;8.518;2023-08-21T08:24:11;6.63;;;3.95;;
20725;SDS011;10524;48.132;8.518;2023-08-21T08:26:37;8.93;;;4.50;;
20725;SDS011;10524;48.132;8.518;2023-08-21T08:29:03;5.60;;;3.80;;
20725;SDS011;10524;48.132;8.518;2023-08-21T08:31:30;6.50;;;4.30;;
20725;SDS011;10524;48.132;8.518;2023-08-21T08:33:56;4.93;;;3.60;;
20725;SDS011;10524;48.132;8.518;2023-08-21T08:36:21;6.93;;;4.45;;
20725;SDS011;10524;48.132;8.518;2023-08-21T08:38:47;6.72;;;4.13;;
20725;SDS011;10524;48.132;8.518;2023-08-21T08:41:20;5.95;;;4.50;;
20725;SDS011;10524;48.132;8.518;2023-08-21T08:43:53;5.45;;;4.22;;
20725;SDS011;10524;48.132;8.518;2023-08-21T08:46:21;7.03;;;4.53;;
20725;SDS011;10524;48.132;8.518;2023-08-21T08:48:49;7.03;;;4.00;;
20725;SDS011;10524;48.132;8.518;2023-08-21T08:51:15;9.38;;;4.78;;
20725;SDS011;10524;48.132;8.518;2023-08-21T08:53:42;6.35;;;4.35;;
20725;SDS011;10524;48.132;8.518;2023-08-21T08:56:09;9.23;;;4.78;;
20725;SDS011;10524;48.132;8.518;2023-08-21T08:58:35;8.25;;;4.35;;
20725;SDS011;10524;48.132;8.518;2023-08-21T09:01:00;6.95;;;4.07;;
20725;SDS011;10524;48.132;8.518;2023-08-21T09:03:27;8.95;;;4.20;;
20725;SDS011;10524;48.132;8.518;2023-08-21T09:05:54;5.97;;;4.13;;
20725;SDS011;10524;48.132;8.518;2023-08-21T09:08:20;7.18;;;4.30;;
20725;SDS011;10524;48.132;8.518;2023-08-21T09:10:46;7.03;;;4.50;;
20725;SDS011;10524;48.132;8.518;2023-08-21T09:13:15;6.78;;;4.43;;
20725;SDS011;10524;48.132;8.518;2023-08-21T09:18:14;7.05;;;4.00;;
20725;SDS011;10524;48.132;8.518;2023-08-21T09:20:41;5.18;;;3.95;;
20725;SDS011;10524;48.132;8.518;2023-08-21T09:23:08;8.85;;;4.68;;
20725;SDS011;10524;48.132;8.518;2023-08-21T09:25:38;7.40;;;4.20;;
20725;SDS011;10524;48.132;8.518;2023-08-21T09:28:07;7.93;;;3.85;;
20725;SDS011;10524;48.132;8.518;2023-08-21T09:30:43;11.52;;;4.00;;
20725;SDS011;10524;48.132;8.518;2023-08-21T09:33:10;9.32;;;4.18;;
20725;SDS011;10524;48.132;8.518;2023-08-21T09:35:35;7.05;;;3.90;;
20725;SDS011;10524;48.132;8.518;2023-08-21T09:38:01;5.78;;;4.28;;
20725;SDS011;10524;48.132;8.518;2023-08-21T09:40:27;6.97;;;3.95;;
20725;SDS011;10524;48.132;8.518;2023-08-21T09:42:53;8.10;;;4.07;;
20725;SDS011;10524;48.132;8.518;2023-08-21T09:45:23;6.20;;;4.30;;
20725;SDS011;10524;48.132;8.518;2023-08-21T09:47:53;9.27;;;4.53;;
20725;SDS011;10524;48.132;8.518;2023-08-21T09:50:19;5.63;;;4.40;;
20725;SDS011;10524;48.132;8.518;2023-08-21T09:52:46;8.55;;;3.90;;
20725;SDS011;10524;48.132;8.518;2023-08-21T09:55:13;8.57;;;4.55;;
20725;SDS011;10524;48.132;8.518;2023-08-21T09:57:40;6.00;;;4.10;;
20725;SDS011;10524;48.132;8.518;2023-08-21T10:00:06;6.85;;;4.13;;
20725;SDS011;10524;48.132;8.518;2023-08-21T10:02:43;6.68;;;4.10;;
20725;SDS011;10524;48.132;8.518;2023-08-21T10:05:17;7.22;;;4.40;;
20725;SDS011;10524;48.132;8.518;2023-08-21T10:07:43;10.82;;;4.50;;
20725;SDS011;10524;48.132;8.518;2023-08-21T10:10:12;8.35;;;4.32;;
20725;SDS011;10524;48.132;8.518;2023-08-21T10:12:38;9.18;;;4.53;;
20725;SDS011;10524;48.132;8.518;2023-08-21T10:15:04;7.20;;;4.63;;
20725;SDS011;10524;48.132;8.518;2023-08-21T10:17:32;5.22;;;4.10;;
20725;SDS011;10524;48.132;8.518;2023-08-21T10:20:04;7.65;;;4.43;;
20725;SDS011;10524;48.132;8.518;2023-08-21T10:22:48;8.73;;;4.30;;
20725;SDS011;10524;48.132;8.518;2023-08-21T10:25:15;7.65;;;4.78;;
20725;SDS011;10524;48.132;8.518;2023-08-21T10:27:48;6.32;;;4.75;;
20725;SDS011;10524;48.132;8.518;2023-08-21T10:30:21;10.00;;;4.43;;
20725;SDS011;10524;48.132;8.518;2023-08-21T10:32:51;10.30;;;4.35;;
20725;SDS011;10524;48.132;8.518;2023-08-21T10:35:19;7.47;;;4.65;;
20725;SDS011;10524;48.132;8.518;2023-08-21T10:41:04;6.28;;;4.30;;
20725;SDS011;10524;48.132;8.518;2023-08-21T10:43:38;6.18;;;4.13;;
20725;SDS011;10524;48.132;8.518;2023-08-21T10:46:11;7.88;;;4.22;;
20725;SDS011;10524;48.132;8.518;2023-08-21T10:48:38;4.63;;;3.83;;
20725;SDS011;10524;48.132;8.518;2023-08-21T10:51:05;7.63;;;4.25;;
20725;SDS011;10524;48.132;8.518;2023-08-21T10:53:32;7.05;;;4.18;;
20725;SDS011;10524;48.132;8.518;2023-08-21T10:56:05;6.93;;;3.60;;
20725;SDS011;10524;48.132;8.518;2023-08-21T10:58:49;4.80;;;3.60;;
20725;SDS011;10524;48.132;8.518;2023-08-21T11:01:16;6.88;;;3.90;;
20725;SDS011;10524;48.132;8.518;2023-08-21T11:03:45;6.85;;;3.80;;
20725;SDS011;10524;48.132;8.518;2023-08-21T11:06:11;7.90;;;3.70;;
20725;SDS011;10524;48.132;8.518;2023-08-21T11:08:37;7.03;;;4.20;;
20725;SDS011;10524;48.132;8.518;2023-08-21T11:11:04;6.38;;;3.80;;
20725;SDS011;10524;48.132;8.518;2023-08-21T11:13:31;10.07;;;3.50;;
20725;SDS011;10524;48.132;8.518;2023-08-21T11:16:01;9.40;;;3.80;;
20725;SDS011;10524;48.132;8.518;2023-08-21T11:21:11;5.65;;;3.38;;
20725;SDS011;10524;48.132;8.518;2023-08-21T11:23:37;5.43;;;3.50;;
20725;SDS011;10524;48.132;8.518;2023-08-21T11:26:05;8.02;;;3.70;;
20725;SDS011;10524;48.132;8.518;2023-08-21T11:28:32;7.78;;;3.20;;
20725;SDS011;10524;48.132;8.518;2023-08-21T11:30:58;9.27;;;4.10;;
20725;SDS011;10524;48.132;8.518;2023-08-21T11:33:25;8.82;;;3.83;;
20725;SDS011;10524;48.132;8.518;2023-08-21T11:35:52;7.15;;;3.63;;
20725;SDS011;10524;48.132;8.518;2023-08-21T11:38:23;5.90;;;3.97;;
20725;SDS011;10524;48.132;8.518;2023-08-21T11:41:09;8.35;;;4.00;;
20725;SDS011;10524;48.132;8.518;2023-08-21T11:46:02;8.23;;;4.30;;
20725;SDS011;10524;48.132;8.518;2023-08-21T11:48:29;6.55;;;4.28;;
20725;SDS011;10524;48.132;8.518;2023-08-21T11:50:55;5.97;;;4.32;;
20725;SDS011;10524;48.132;8.518;2023-08-21T11:53:31;5.68;;;4.55;;
20725;SDS011;10524;48.132;8.518;2023-08-21T11:55:58;8.48;;;5.10;;
20725;SDS011;10524;48.132;8.518;2023-08-21T11:58:26;8.30;;;4.90;;
20725;SDS011;10524;48.132;8.518;2023-08-21T12:00:53;6.95;;;4.70;;
20725;SDS011;10524;48.132;8.518;2023-08-21T12:03:19;6.32;;;4.70;;
20725;SDS011;10524;48.132;8.518;2023-08-21T12:05:45;10.10;;;4.90;;
20725;SDS011;10524;48.132;8.518;2023-08-21T12:08:11;5.97;;;4.40;;
20725;SDS011;10524;48.132;8.518;2023-08-21T12:10:37;10.68;;;5.00;;
20725;SDS011;10524;48.132;8.518;2023-08-21T12:13:03;8.60;;;5.15;;
20725;SDS011;10524;48.132;8.518;2023-08-21T12:15:28;5.80;;;4.93;;
20725;SDS011;10524;48.132;8.518;2023-08-21T12:17:54;9.63;;;5.80;;
20725;SDS011;10524;48.132;8.518;2023-08-21T12:20:20;7.63;;;5.22;;
20725;SDS011;10524;48.132;8.518;2023-08-21T12:22:46;9.90;;;5.20;;
20725;SDS011;10524;48.132;8.518;2023-08-21T12:25:12;5.85;;;5.25;;
20725;SDS011;10524;48.132;8.518;2023-08-21T12:27:38;9.80;;;5.53;;
20725;SDS011;10524;48.132;8.518;2023-08-21T12:30:04;5.57;;;4.40;;
20725;SDS011;10524;48.132;8.518;2023-08-21T12:32:32;8.20;;;5.05;;
20725;SDS011;10524;48.132;8.518;2023-08-21T12:34:58;9.45;;;4.80;;
20725;SDS011;10524;48.132;8.518;2023-08-21T12:37:24;7.60;;;4.53;;
20725;SDS011;10524;48.132;8.518;2023-08-21T12:39:50;10.13;;;4.57;;
20725;SDS011;10524;48.132;8.518;2023-08-21T12:42:16;6.70;;;4.38;;
20725;SDS011;10524;48.132;8.518;2023-08-21T12:44:42;6.93;;;4.38;;
20725;SDS011;10524;48.132;8.518;2023-08-21T12:47:07;7.65;;;4.38;;
20725;SDS011;10524;48.132;8.518;2023-08-21T12:49:33;10.18;;;4.20;;
20725;SDS011;10524;48.132;8.518;2023-08-21T12:52:00;8.05;;;4.20;;
20725;SDS011;10524;48.132;8.518;2023-08-21T12:54:26;5.80;;;4.20;;
20725;SDS011;10524;48.132;8.518;2023-08-21T12:56:51;6.88;;;4.00;;
20725;SDS011;10524;48.132;8.518;2023-08-21T12:59:18;6.90;;;4.20;;
20725;SDS011;10524;48.132;8.518;2023-08-21T13:01:44;6.53;;;3.97;;
20725;SDS011;10524;48.132;8.518;2023-08-21T13:04:10;6.07;;;4.30;;
20725;SDS011;10524;48.132;8.518;2023-08-21T13:06:35;6.22;;;4.07;;
20725;SDS011;10524;48.132;8.518;2023-08-21T13:09:01;6.85;;;4.00;;
20725;SDS011;10524;48.132;8.518;2023-08-21T13:11:28;5.82;;;3.90;;
20725;SDS011;10524;48.132;8.518;2023-08-21T13:13:54;8.27;;;4.25;;
20725;SDS011;10524;48.132;8.518;2023-08-21T13:16:20;6.35;;;3.70;;
20725;SDS011;10524;48.132;8.518;2023-08-21T13:18:46;7.65;;;4.20;;
20725;SDS011;10524;48.132;8.518;2023-08-21T13:21:11;6.70;;;4.13;;
20725;SDS011;10524;48.132;8.518;2023-08-21T13:23:37;6.03;;;3.72;;
20725;SDS011;10524;48.132;8.518;2023-08-21T13:26:03;5.72;;;4.05;;
20725;SDS011;10524;48.132;8.518;2023-08-21T13:28:29;6.63;;;4.35;;
20725;SDS011;10524;48.132;8.518;2023-08-21T13:30:56;6.38;;;4.43;;
20725;SDS011;10524;48.132;8.518;2023-08-21T13:33:22;6.45;;;3.78;;
20725;SDS011;10524;48.132;8.518;2023-08-21T13:35:47;6.25;;;3.97;;
20725;SDS011;10524;48.132;8.518;2023-08-21T13:38:13;6.30;;;3.33;;
20725;SDS011;10524;48.132;8.518;2023-08-21T13:40:39;6.50;;;3.90;;
20725;SDS011;10524;48.132;8.518;2023-08-21T13:43:06;9.15;;;3.97;;
20725;SDS011;10524;48.132;8.518;2023-08-21T13:45:32;4.97;;;3.58;;
20725;SDS011;10524;48.132;8.518;2023-08-21T13:47:58;6.10;;;3.88;;
20725;SDS011;10524;48.132;8.518;2023-08-21T13:50:23;4.38;;;3.60;;
20725;SDS011;10524;48.132;8.518;2023-08-21T13:52:49;7.35;;;3.55;;
20725;SDS011;10524;48.132;8.518;2023-08-21T13:55:15;5.30;;;3.53;;
20725;SDS011;10524;48.132;8.518;2023-08-21T13:57:41;5.03;;;3.45;;
20725;SDS011;10524;48.132;8.518;2023-08-21T14:00:07;4.47;;;3.03;;
20725;SDS011;10524;48.132;8.518;2023-08-21T14:02:37;5.72;;;3.60;;
20725;SDS011;10524;48.132;8.518;2023-08-21T14:05:03;5.55;;;3.90;;
20725;SDS011;10524;48.132;8.518;2023-08-21T14:07:30;5.95;;;4.00;;
20725;SDS011;10524;48.132;8.518;2023-08-21T14:09:56;5.28;;;4.10;;
20725;SDS011;10524;48.132;8.518;2023-08-21T14:12:22;7.28;;;4.03;;
20725;SDS011;10524;48.132;8.518;2023-08-21T14:14:48;6.22;;;3.83;;
20725;SDS011;10524;48.132;8.518;2023-08-21T14:17:13;7.60;;;4.10;;
20725;SDS011;10524;48.132;8.518;2023-08-21T14:19:40;6.72;;;4.32;;
20725;SDS011;10524;48.132;8.518;2023-08-21T14:22:05;5.28;;;4.40;;
20725;SDS011;10524;48.132;8.518;2023-08-21T14:24:32;5.40;;;4.63;;
20725;SDS011;10524;48.132;8.518;2023-08-21T14:26:58;9.90;;;4.70;;
20725;SDS011;10524;48.132;8.518;2023-08-21T14:29:24;7.60;;;4.85;;
20725;SDS011;10524;48.132;8.518;2023-08-21T14:31:50;9.50;;;5.10;;
20725;SDS011;10524;48.132;8.518;2023-08-21T14:34:18;5.65;;;4.95;;
20725;SDS011;10524;48.132;8.518;2023-08-21T14:36:45;8.15;;;5.30;;
20725;SDS011;10524;48.132;8.518;2023-08-21T14:39:12;8.45;;;5.20;;
20725;SDS011;10524;48.132;8.518;2023-08-21T14:41:40;11.45;;;5.20;;
20725;SDS011;10524;48.132;8.518;2023-08-21T14:44:06;9.55;;;5.32;;
20725;SDS011;10524;48.132;8.518;2023-08-21T14:46:32;8.90;;;5.22;;
20725;SDS011;10524;48.132;8.518;2023-08-21T14:48:58;6.30;;;4.97;;